Погода Камыкна неделю

Лодзинское воеводство, Польша

16 - 22 июля
  • 16июля
    Сегодня
    +17°
    +31°
    Небольшая облачность, ливень
    ВремяПогодаТемператураВлажностьДавлениеВетер, м/сВероятность осадков
    02:00Ясно и безоблачно+21°C58 %745 мм3.1 м/с2 %
    05:00Ясно и безоблачно+20°C79 %745 мм3.3 м/с2 %
    08:00Ясно и безоблачно+25°C76 %744 мм4.4 м/с2 %
    11:00Небольшая облачность+31°C54 %743 мм4.6 м/с7 %
    14:00Небольшая облачность, ливень+29°C74 %744 мм4.0 м/с65 %
    17:00Пасмурно, дожди с грозами+26°C80 %744 мм2.1 м/с66 %
    20:00Небольшая облачность+24°C86 %744 мм1.7 м/с39 %
    23:00Ясно и безоблачно+21°C91 %745 мм2.0 м/с2 %
  • 17июля
    Среда
    +16°
    +27°
    Небольшая облачность
    ВремяПогодаТемператураВлажностьДавлениеВетер, м/сВероятность осадков
    02:00Ясно и безоблачно+19°C92 %746 мм2.0 м/с2 %
    05:00Небольшая облачность+18°C94 %747 мм2.2 м/с2 %
    08:00Практически безоблачно+22°C77 %748 мм1.2 м/с2 %
    11:00Ясно и безоблачно+24°C56 %749 мм2.0 м/с11 %
    14:00Небольшая облачность+26°C51 %749 мм2.9 м/с7 %
    17:00Небольшая облачность+26°C50 %749 мм4.1 м/с7 %
    20:00Практически безоблачно+23°C70 %749 мм1.3 м/с5 %
    23:00Практически безоблачно+21°C65 %750 мм2.1 м/с9 %
  • 18июля
    Четверг
    +14°
    +26°
    Практически безоблачно
    ВремяПогодаТемператураВлажностьДавлениеВетер, м/сВероятность осадков
    02:00Ясно и безоблачно+18°C78 %750 мм2.0 м/с6 %
    05:00Ясно и безоблачно+16°C88 %750 мм1.8 м/с2 %
    08:00Ясно и безоблачно+20°C70 %751 мм1.3 м/с1 %
    11:00Небольшая облачность+24°C51 %751 мм3.3 м/с2 %
    14:00Практически безоблачно+25°C47 %751 мм4.2 м/с2 %
    17:00Небольшая облачность+26°C43 %750 мм3.9 м/с2 %
    20:00Практически безоблачно+23°C58 %751 мм2.1 м/с2 %
    23:00Небольшая облачность+19°C74 %751 мм2.0 м/с2 %
  • 19июля
    Пятница
    +15°
    +26°
    Небольшая облачность
    ВремяПогодаТемператураВлажностьДавлениеВетер, м/сВероятность осадков
    02:00Облачно с прояснениями+17°C81 %751 мм2.0 м/с2 %
    05:00Облачно с прояснениями+15°C88 %751 мм1.8 м/с2 %
    08:00Облачно с прояснениями+20°C75 %751 мм0.7 м/с2 %
    11:00Облачно с прояснениями+23°C57 %751 мм0.9 м/с3 %
    14:00Небольшая облачность+25°C46 %750 мм1.9 м/с7 %
    17:00Облачно с прояснениями+26°C41 %749 мм2.8 м/с5 %
    20:00Практически безоблачно+23°C58 %749 мм1.8 м/с2 %
    23:00Ясно и безоблачно+19°C72 %749 мм1.9 м/с2 %
  • 20июля
    Суббота
    +15°
    +27°
    Ясно и безоблачно
    ВремяПогодаТемператураВлажностьДавлениеВетер, м/сВероятность осадков
    02:00Ясно и безоблачно+16°C82 %749 мм1.7 м/с2 %
    05:00Ясно и безоблачно+17°C80 %748 мм0.8 м/с2 %
    08:00Ясно и безоблачно+20°C72 %748 мм0.1 м/с2 %
    11:00Практически безоблачно+24°C53 %748 мм1.8 м/с2 %
    14:00Ясно и безоблачно+26°C45 %748 мм1.9 м/с2 %
    17:00Ясно и безоблачно+27°C43 %747 мм2.0 м/с2 %
    20:00Ясно и безоблачно+23°C55 %746 мм1.8 м/с2 %
    23:00Ясно и безоблачно+19°C63 %746 мм2.4 м/с2 %
Мы используем cookies
Соглашаюсь